Time;durP1;ratioP1;P1;durP2;ratioP2;P2;SDS_P1;SDS_P2;PMS_P1;PMS_P2;Temp;Humidity;BMP_temperature;BMP_pressure;BME280_temperature;BME280_humidity;BME280_pressure;Samples;Min_cycle;Max_cycle;Signal;HPM_P1;HPM_P2
2022/02/15 00:02:10;;;;;;;23.08;12.77;;;;;;;;;;5093554;28;20027;-77
2022/02/15 00:04:36;;;;;;;23.38;12.43;;;;;;;;;;5094478;28;20353;-76
2022/02/15 00:07:03;;;;;;;26.75;13.80;;;;;;;;;;5093764;28;20020;-76
2022/02/15 00:09:29;;;;;;;21.42;12.52;;;;;;;;;;5093414;28;20082;-76
2022/02/15 00:11:55;;;;;;;23.33;12.30;;;;;;;;;;5093930;28;20012;-76
2022/02/15 00:14:21;;;;;;;24.08;14.40;;;;;;;;;;5093732;28;20471;-76
2022/02/15 00:16:50;;;;;;;25.13;14.82;;;;;;;;;;5093351;28;20387;-77
2022/02/15 00:19:17;;;;;;;24.30;13.30;;;;;;;;;;5094351;28;20477;-76
2022/02/15 00:21:44;;;;;;;19.65;12.02;;;;;;;;;;5093511;28;20353;-77
2022/02/15 00:24:10;;;;;;;18.88;12.18;;;;;;;;;;5093746;28;20098;-77
2022/02/15 00:26:36;;;;;;;19.45;12.05;;;;;;;;;;5093571;28;20043;-76
2022/02/15 00:29:02;;;;;;;20.65;11.23;;;;;;;;;;5093451;28;20547;-77
2022/02/15 00:31:29;;;;;;;24.08;12.23;;;;;;;;;;5092667;28;20020;-76
2022/02/15 00:33:55;;;;;;;30.88;15.93;;;;;;;;;;5093556;28;20107;-76
2022/02/15 00:36:21;;;;;;;30.25;16.50;;;;;;;;;;5093146;28;20020;-76
2022/02/15 00:38:47;;;;;;;25.88;13.95;;;;;;;;;;5093623;28;20024;-76
2022/02/15 00:41:14;;;;;;;30.38;17.00;;;;;;;;;;5093764;28;20020;-77
2022/02/15 00:43:40;;;;;;;30.52;16.77;;;;;;;;;;5093106;28;20543;-76
2022/02/15 00:46:06;;;;;;;30.13;16.90;;;;;;;;;;5093431;28;20024;-76
2022/02/15 00:48:32;;;;;;;39.88;23.08;;;;;;;;;;5094604;28;20043;-76
2022/02/15 00:50:59;;;;;;;58.78;28.73;;;;;;;;;;5097280;28;20085;-76
2022/02/15 00:53:25;;;;;;;36.42;19.58;;;;;;;;;;5097421;28;20047;-75
2022/02/15 00:55:51;;;;;;;51.17;25.38;;;;;;;;;;5097421;28;20024;-77
2022/02/15 00:58:17;;;;;;;35.50;21.27;;;;;;;;;;5097202;28;20112;-77
2022/02/15 01:00:43;;;;;;;38.72;21.55;;;;;;;;;;5098081;28;20024;-77
2022/02/15 01:03:10;;;;;;;38.45;19.08;;;;;;;;;;5109280;28;20035;-77
2022/02/15 01:05:36;;;;;;;23.10;12.95;;;;;;;;;;5099279;28;20403;-76
2022/02/15 01:08:02;;;;;;;20.73;11.70;;;;;;;;;;5098571;28;20050;-76
2022/02/15 01:10:28;;;;;;;19.45;11.70;;;;;;;;;;5097667;28;20410;-75
2022/02/15 01:12:55;;;;;;;23.83;12.13;;;;;;;;;;5097136;28;20028;-75
2022/02/15 01:15:21;;;;;;;23.52;13.43;;;;;;;;;;5096219;28;20086;-75
2022/02/15 01:17:48;;;;;;;27.50;16.23;;;;;;;;;;5097169;28;20096;-76
2022/02/15 01:20:14;;;;;;;26.70;14.70;;;;;;;;;;5096753;28;20491;-76
2022/02/15 01:22:40;;;;;;;35.03;15.30;;;;;;;;;;5097170;28;20036;-76
2022/02/15 01:25:07;;;;;;;21.92;13.18;;;;;;;;;;5096730;28;20024;-77
2022/02/15 01:27:33;;;;;;;27.85;14.48;;;;;;;;;;5096886;28;20433;-76
2022/02/15 01:29:59;;;;;;;32.50;15.23;;;;;;;;;;5096876;28;20031;-76
2022/02/15 01:32:26;;;;;;;29.17;15.45;;;;;;;;;;5096384;28;20028;-76
2022/02/15 01:34:52;;;;;;;27.13;15.75;;;;;;;;;;5096748;28;20521;-76
2022/02/15 01:37:18;;;;;;;23.33;14.80;;;;;;;;;;5096638;28;20028;-76
2022/02/15 01:39:44;;;;;;;33.67;15.57;;;;;;;;;;5096205;28;20072;-76
2022/02/15 01:42:10;;;;;;;25.17;14.10;;;;;;;;;;5096641;28;20028;-76
2022/02/15 01:44:37;;;;;;;26.23;14.63;;;;;;;;;;5096476;28;20464;-76
2022/02/15 01:47:04;;;;;;;29.45;14.43;;;;;;;;;;5096000;28;20035;-76
2022/02/15 01:49:30;;;;;;;32.13;16.92;;;;;;;;;;5095214;28;20039;-75
2022/02/15 01:51:56;;;;;;;28.63;15.93;;;;;;;;;;5096370;28;20028;-75
2022/02/15 01:54:22;;;;;;;24.30;13.18;;;;;;;;;;5095986;28;20122;-75
2022/02/15 01:56:48;;;;;;;30.92;15.05;;;;;;;;;;5096285;28;20024;-77
2022/02/15 01:59:15;;;;;;;28.50;16.60;;;;;;;;;;5095817;28;20047;-77
2022/02/15 02:01:41;;;;;;;26.95;16.02;;;;;;;;;;5095863;28;20451;-77
2022/02/15 02:05:47;;;;;;;30.60;16.45;;;;;;;;;;5094840;28;20035;-77
2022/02/15 02:06:54;;;;;;;23.58;12.95;;;;;;;;;;5095969;28;20430;-77
2022/02/15 02:09:20;;;;;;;21.70;11.93;;;;;;;;;;5095683;28;20020;-76
2022/02/15 02:11:46;;;;;;;25.17;11.25;;;;;;;;;;5094723;28;20032;-76
2022/02/15 02:14:12;;;;;;;27.00;11.35;;;;;;;;;;5095525;28;20387;-76
2022/02/15 02:16:39;;;;;;;20.05;11.93;;;;;;;;;;5095967;28;20070;-75
2022/02/15 02:19:05;;;;;;;19.80;12.40;;;;;;;;;;5095835;28;20043;-76
2022/02/15 02:21:40;;;;;;;24.10;13.07;;;;;;;;;;5095612;28;20016;-75
2022/02/15 02:24:07;;;;;;;23.58;12.05;;;;;;;;;;5094490;28;20454;-76
2022/02/15 02:26:33;;;;;;;25.83;13.43;;;;;;;;;;5094177;28;20483;-76
2022/02/15 02:28:59;;;;;;;21.30;12.80;;;;;;;;;;5095506;28;20028;-77
2022/02/15 02:31:25;;;;;;;26.77;14.43;;;;;;;;;;5095696;28;20024;-76
2022/02/15 02:33:52;;;;;;;21.65;12.18;;;;;;;;;;5095691;28;20032;-76
2022/02/15 02:36:18;;;;;;;22.73;11.68;;;;;;;;;;5095194;28;20020;-76
2022/02/15 02:38:44;;;;;;;22.25;11.82;;;;;;;;;;5095434;28;20052;-76
2022/02/15 02:41:10;;;;;;;30.60;15.00;;;;;;;;;;5095414;28;20035;-76
2022/02/15 02:43:36;;;;;;;28.38;14.63;;;;;;;;;;5095105;28;20028;-75
2022/02/15 02:46:03;;;;;;;20.00;11.75;;;;;;;;;;5095324;28;20048;-76
2022/02/15 02:48:29;;;;;;;22.80;13.25;;;;;;;;;;5095234;28;20035;-76
2022/02/15 02:50:55;;;;;;;21.20;11.55;;;;;;;;;;5094856;28;20439;-76
2022/02/15 02:53:21;;;;;;;20.58;11.25;;;;;;;;;;5093901;28;20112;-75
2022/02/15 02:55:47;;;;;;;21.58;11.82;;;;;;;;;;5093864;28;20047;-77
2022/02/15 02:58:13;;;;;;;20.60;10.90;;;;;;;;;;5094740;28;20077;-76
2022/02/15 03:00:39;;;;;;;19.25;11.95;;;;;;;;;;5095039;28;20487;-77
2022/02/15 03:03:07;;;;;;;21.13;12.35;;;;;;;;;;5095107;28;20020;-77
2022/02/15 03:05:34;;;;;;;19.52;10.95;;;;;;;;;;5094646;28;20027;-77
2022/02/15 03:08:00;;;;;;;24.48;12.27;;;;;;;;;;5094840;28;20063;-76
2022/02/15 03:10:26;;;;;;;22.08;11.40;;;;;;;;;;5094217;28;20025;-76
2022/02/15 03:12:53;;;;;;;20.23;11.68;;;;;;;;;;5094563;28;20028;-77
2022/02/15 03:15:19;;;;;;;22.70;12.48;;;;;;;;;;5094783;28;20020;-76
2022/02/15 03:17:45;;;;;;;30.77;14.82;;;;;;;;;;5094286;28;20028;-76
2022/02/15 03:20:11;;;;;;;27.95;14.60;;;;;;;;;;5094648;28;20027;-76
2022/02/15 03:22:37;;;;;;;36.17;18.25;;;;;;;;;;5093334;28;20034;-76
2022/02/15 03:25:04;;;;;;;31.55;17.75;;;;;;;;;;5092880;28;20384;-77
2022/02/15 03:27:30;;;;;;;38.58;19.05;;;;;;;;;;5094238;28;20056;-77
2022/02/15 03:29:56;;;;;;;35.10;18.58;;;;;;;;;;5094700;28;20031;-77
2022/02/15 03:32:22;;;;;;;34.17;17.63;;;;;;;;;;5094050;28;20077;-77
2022/02/15 03:34:49;;;;;;;30.52;17.40;;;;;;;;;;5094434;28;20024;-77
2022/02/15 03:37:15;;;;;;;33.30;15.52;;;;;;;;;;5094349;28;20032;-76
2022/02/15 03:39:41;;;;;;;30.33;16.33;;;;;;;;;;5092634;28;20024;-76
2022/02/15 03:44:53;;;;;;;28.45;16.25;;;;;;;;;;5094200;28;20537;-77
2022/02/15 03:47:19;;;;;;;31.17;17.25;;;;;;;;;;5093669;28;20373;-77
2022/02/15 03:49:45;;;;;;;24.58;14.88;;;;;;;;;;5094118;28;20027;-77
2022/02/15 03:52:12;;;;;;;25.42;12.30;;;;;;;;;;5092816;28;20456;-75
2022/02/15 03:54:38;;;;;;;26.58;15.48;;;;;;;;;;5092382;28;20490;-76
2022/02/15 03:57:04;;;;;;;23.33;13.30;;;;;;;;;;5092859;28;20031;-77
2022/02/15 03:59:30;;;;;;;21.40;14.15;;;;;;;;;;5094519;28;20577;-78
2022/02/15 04:01:56;;;;;;;25.20;12.98;;;;;;;;;;5092416;28;20024;-78
2022/02/15 04:04:23;;;;;;;25.85;14.23;;;;;;;;;;5092707;28;20020;-77
2022/02/15 04:06:51;;;;;;;26.45;15.00;;;;;;;;;;5093473;28;20548;-77
2022/02/15 04:09:17;;;;;;;29.63;14.95;;;;;;;;;;5093851;28;20039;-77
2022/02/15 04:11:43;;;;;;;27.65;15.45;;;;;;;;;;5094044;28;20020;-77
2022/02/15 04:14:09;;;;;;;28.85;14.80;;;;;;;;;;5093884;28;20060;-77
2022/02/15 04:16:37;;;;;;;23.15;13.68;;;;;;;;;;5092515;28;20023;-76
2022/02/15 04:19:03;;;;;;;24.65;13.25;;;;;;;;;;5093783;28;20047;-77
2022/02/15 04:21:30;;;;;;;22.50;12.25;;;;;;;;;;5093439;28;20447;-77
2022/02/15 04:23:56;;;;;;;23.17;11.98;;;;;;;;;;5092236;28;20497;-77
2022/02/15 04:26:22;;;;;;;22.42;12.15;;;;;;;;;;5095621;28;20079;-77
2022/02/15 04:28:48;;;;;;;19.48;11.10;;;;;;;;;;5096624;28;20025;-77
2022/02/15 04:31:14;;;;;;;21.50;12.35;;;;;;;;;;5095978;28;20028;-77
2022/02/15 04:33:41;;;;;;;20.02;10.85;;;;;;;;;;5093652;28;20028;-76
2022/02/15 04:36:07;;;;;;;21.48;12.48;;;;;;;;;;5093452;28;20021;-77
2022/02/15 04:38:34;;;;;;;18.80;11.43;;;;;;;;;;5092943;28;20387;-77
2022/02/15 04:41:00;;;;;;;31.40;17.42;;;;;;;;;;5093978;28;20027;-77
2022/02/15 04:43:26;;;;;;;39.17;17.63;;;;;;;;;;5093418;28;20065;-78
2022/02/15 04:45:53;;;;;;;35.22;19.88;;;;;;;;;;5093694;28;20383;-77
2022/02/15 04:48:19;;;;;;;41.40;22.35;;;;;;;;;;5093748;28;20042;-77
2022/02/15 04:50:45;;;;;;;43.70;22.73;;;;;;;;;;5093202;28;20070;-77
2022/02/15 04:53:11;;;;;;;43.03;22.38;;;;;;;;;;5093355;28;20023;-76
2022/02/15 04:55:37;;;;;;;34.88;20.67;;;;;;;;;;5093397;28;20028;-76
2022/02/15 04:58:03;;;;;;;32.00;17.05;;;;;;;;;;5091676;28;20050;-77
2022/02/15 05:00:30;;;;;;;30.73;16.75;;;;;;;;;;5092003;28;20107;-78
2022/02/15 05:02:56;;;;;;;31.60;18.52;;;;;;;;;;5093265;28;20529;-77
2022/02/15 05:05:22;;;;;;;37.10;17.55;;;;;;;;;;5093308;28;20032;-77
2022/02/15 05:07:48;;;;;;;35.55;19.27;;;;;;;;;;5093221;28;20032;-77
2022/02/15 05:10:14;;;;;;;50.35;23.63;;;;;;;;;;5091475;28;20020;-77
2022/02/15 05:12:41;;;;;;;41.13;19.33;;;;;;;;;;5093532;28;20140;-76
2022/02/15 05:15:10;;;;;;;42.22;19.77;;;;;;;;;;5093165;28;20392;-77
2022/02/15 05:17:43;;;;;;;35.97;16.95;;;;;;;;;;5093011;28;20388;-76
2022/02/15 05:20:11;;;;;;;40.88;23.58;;;;;;;;;;5091872;28;20027;-77
2022/02/15 05:22:38;;;;;;;56.90;27.38;;;;;;;;;;5093120;28;20031;-77
2022/02/15 05:25:04;;;;;;;43.67;23.10;;;;;;;;;;5092665;28;20020;-78
2022/02/15 05:27:31;;;;;;;44.00;23.25;;;;;;;;;;5092785;28;20130;-78
2022/02/15 05:29:57;;;;;;;40.58;21.77;;;;;;;;;;5091734;28;20020;-78
2022/02/15 05:32:23;;;;;;;38.47;20.10;;;;;;;;;;5092819;28;20078;-77
2022/02/15 05:34:49;;;;;;;31.55;19.05;;;;;;;;;;5094586;28;20025;-77
2022/02/15 05:37:15;;;;;;;33.10;17.83;;;;;;;;;;5096665;28;20028;-78
2022/02/15 05:39:42;;;;;;;31.42;19.33;;;;;;;;;;5094964;28;20455;-76
2022/02/15 05:42:08;;;;;;;31.33;19.15;;;;;;;;;;5096527;28;20107;-77
2022/02/15 05:44:34;;;;;;;32.58;18.17;;;;;;;;;;5096489;28;20020;-77
2022/02/15 05:47:00;;;;;;;41.13;19.95;;;;;;;;;;5096113;28;20459;-77
2022/02/15 05:49:26;;;;;;;31.70;17.75;;;;;;;;;;5096438;28;20106;-77
2022/02/15 05:51:53;;;;;;;31.50;18.00;;;;;;;;;;5095133;28;20016;-78
2022/02/15 05:54:19;;;;;;;29.58;18.23;;;;;;;;;;5095926;28;20028;-77
2022/02/15 05:56:45;;;;;;;30.25;17.67;;;;;;;;;;5095010;28;20118;-78
2022/02/15 05:59:11;;;;;;;56.97;29.42;;;;;;;;;;5095036;28;20361;-78
2022/02/15 06:01:38;;;;;;;40.20;22.85;;;;;;;;;;5094537;28;20020;-78
2022/02/15 06:04:10;;;;;;;39.92;21.05;;;;;;;;;;5092424;28;20024;-78
2022/02/15 06:06:36;;;;;;;39.72;21.40;;;;;;;;;;5092286;28;20032;-77
2022/02/15 06:09:03;;;;;;;47.47;25.13;;;;;;;;;;5095158;28;20480;-77
2022/02/15 06:11:29;;;;;;;45.22;24.02;;;;;;;;;;5094534;28;20020;-77
2022/02/15 06:13:57;;;;;;;42.45;24.15;;;;;;;;;;5094749;28;20357;-77
2022/02/15 06:16:23;;;;;;;40.38;22.13;;;;;;;;;;5094485;28;20028;-78
2022/02/15 06:18:50;;;;;;;43.83;23.98;;;;;;;;;;5095362;28;20035;-77
2022/02/15 06:21:17;;;;;;;41.83;22.05;;;;;;;;;;5091541;28;20027;-74
2022/02/15 06:23:43;;;;;;;55.38;28.30;;;;;;;;;;5093054;28;20024;-73
2022/02/15 06:26:09;;;;;;;43.85;22.70;;;;;;;;;;5090755;28;20024;-73
2022/02/15 06:28:36;;;;;;;41.33;20.23;;;;;;;;;;5088118;28;20160;-73
2022/02/15 06:31:02;;;;;;;34.55;21.20;;;;;;;;;;5094683;28;20028;-73
2022/02/15 06:33:28;;;;;;;37.80;21.38;;;;;;;;;;5094643;28;20063;-72
2022/02/15 06:35:54;;;;;;;36.50;21.27;;;;;;;;;;5093775;28;20082;-73
2022/02/15 06:38:20;;;;;;;43.13;25.98;;;;;;;;;;5094769;28;20034;-72
2022/02/15 06:40:46;;;;;;;44.08;23.45;;;;;;;;;;5093145;28;20095;-74
2022/02/15 06:43:12;;;;;;;46.70;23.02;;;;;;;;;;5088332;28;20024;-74
2022/02/15 06:45:39;;;;;;;57.22;30.33;;;;;;;;;;5093030;28;20085;-76
2022/02/15 06:48:05;;;;;;;50.75;28.45;;;;;;;;;;5094166;28;20036;-73
2022/02/15 06:50:32;;;;;;;41.53;26.08;;;;;;;;;;5093194;28;20032;-73
2022/02/15 06:52:58;;;;;;;41.17;22.42;;;;;;;;;;5094191;28;20051;-73
2022/02/15 06:55:24;;;;;;;33.25;20.08;;;;;;;;;;5093993;28;20420;-73
2022/02/15 06:57:50;;;;;;;44.92;25.42;;;;;;;;;;5093068;28;20031;-73
2022/02/15 07:00:17;;;;;;;66.20;36.35;;;;;;;;;;5093253;28;20028;-73
2022/02/15 07:02:43;;;;;;;71.63;37.38;;;;;;;;;;5091880;28;20016;-73
2022/02/15 07:05:10;;;;;;;69.47;39.25;;;;;;;;;;5092785;28;20020;-74
2022/02/15 07:07:36;;;;;;;;;;;;;;;;;;5092825;28;20391;-74
2022/02/15 07:10:02;;;;;;;;;;;;;;;;;;5090205;28;19999;-73
2022/02/15 07:12:28;;;;;;;;;;;;;;;;;;5088458;28;19904;-74
2022/02/15 07:14:54;;;;;;;;;;;;;;;;;;5094191;28;20007;-74
2022/02/15 07:17:19;;;;;;;;;;;;;;;;;;5094004;28;19904;-72
2022/02/15 07:19:45;;;;;;;;;;;;;;;;;;5092788;28;20248;-74
2022/02/15 07:22:11;;;;;;;;;;;;;;;;;;5089953;28;19943;-72
2022/02/15 07:24:39;;;;;;;;;;;;;;;;;;5087226;28;19934;-73
2022/02/15 07:27:05;;;;;;;;;;;;;;;;;;5092187;28;19916;-73
2022/02/15 07:29:31;;;;;;;;;;;;;;;;;;5092450;28;19908;-74
2022/02/15 07:31:57;;;;;;;;;;;;;;;;;;5088891;28;19965;-73
2022/02/15 07:34:23;;;;;;;;;;;;;;;;;;5087538;28;20002;-73
2022/02/15 07:36:49;;;;;;;;;;;;;;;;;;5087706;28;20310;-75
2022/02/15 07:39:15;;;;;;;;;;;;;;;;;;5089476;28;20355;-74
2022/02/15 07:41:41;;;;;;;;;;;;;;;;;;5091519;28;19914;-73
2022/02/15 07:44:07;;;;;;;;;;;;;;;;;;5082953;28;20003;-73
2022/02/15 07:46:33;;;;;;;;;;;;;;;;;;5091088;28;20003;-74
2022/02/15 07:48:59;;;;;;;;;;;;;;;;;;5092689;28;19974;-74
2022/02/15 07:51:25;;;;;;;;;;;;;;;;;;5092940;28;20355;-73
2022/02/15 07:53:51;;;;;;;;;;;;;;;;;;5092549;28;19908;-74
2022/02/15 07:56:17;;;;;;;;;;;;;;;;;;5092343;28;20304;-73
2022/02/15 07:58:43;;;;;;;;;;;;;;;;;;5093215;28;19911;-74
2022/02/15 08:01:09;;;;;;;;;;;;;;;;;;5093679;28;19904;-74
2022/02/15 08:03:35;;;;;;;;;;;;;;;;;;5092213;28;20255;-75
2022/02/15 08:06:01;;;;;;;;;;;;;;;;;;5092934;28;20364;-74
2022/02/15 08:08:27;;;;;;;;;;;;;;;;;;5086851;28;20000;-74
2022/02/15 08:10:56;;;;;;;;;;;;;;;;;;5091862;28;19958;-75
2022/02/15 08:13:22;;;;;;;;;;;;;;;;;;5091281;28;20352;-73
2022/02/15 08:15:49;;;;;;;;;;;;;;;;;;5091781;28;19911;-75
2022/02/15 08:18:15;;;;;;;;;;;;;;;;;;5091579;28;19904;-76
2022/02/15 08:20:41;;;;;;;;;;;;;;;;;;5091540;28;20286;-74
2022/02/15 08:23:07;;;;;;;;;;;;;;;;;;5090681;28;19908;-74
2022/02/15 08:25:34;;;;;;;;;;;;;;;;;;5089787;28;19915;-74
2022/02/15 08:28:00;;;;;;;;;;;;;;;;;;5078319;28;19927;-73
2022/02/15 08:30:26;;;;;;;;;;;;;;;;;;5092269;28;19904;-73
2022/02/15 08:32:52;;;;;;;;;;;;;;;;;;5092037;28;19904;-73
2022/02/15 08:35:19;;;;;;;;;;;;;;;;;;5090860;28;20268;-74
2022/02/15 08:37:45;;;;;;;;;;;;;;;;;;5089742;28;19910;-73
2022/02/15 08:40:12;;;;;;;;;;;;;;;;;;5088092;28;20003;-74
2022/02/15 08:42:38;;;;;;;;;;;;;;;;;;5088950;28;19904;-73
2022/02/15 08:45:06;;;;;;;;;;;;;;;;;;5089346;28;19998;-72
2022/02/15 08:47:32;;;;;;;;;;;;;;;;;;5087843;28;19916;-73
2022/02/15 08:49:58;;;;;;;;;;;;;;;;;;5090705;28;20425;-73
2022/02/15 08:52:26;;;;;;;;;;;;;;;;;;5090827;28;19995;-72
2022/02/15 08:54:52;;;;;;;;;;;;;;;;;;5091746;28;19943;-75
2022/02/15 08:57:18;;;;;;;;;;;;;;;;;;5092305;28;19904;-73
2022/02/15 08:59:44;;;;;;;;;;;;;;;;;;5090620;28;19904;-77
2022/02/15 09:02:10;;;;;;;;;;;;;;;;;;5089063;28;19908;-76
2022/02/15 09:04:36;;;;;;;;;;;;;;;;;;5091321;28;20040;-77
2022/02/15 09:07:02;;;;;;;;;;;;;;;;;;5091941;28;19933;-73
2022/02/15 09:09:28;;;;;;;;;;;;;;;;;;5093964;28;19904;-73
2022/02/15 09:11:54;;;;;;;;;;;;;;;;;;5096779;28;19904;-74
2022/02/15 09:14:20;;;;;;;;;;;;;;;;;;5096016;28;20386;-74
2022/02/15 09:16:46;;;;;;;;;;;;;;;;;;5095546;28;19947;-78
2022/02/15 09:19:12;;;;;;;;;;;;;;;;;;5097048;28;19904;-76
2022/02/15 09:21:39;;;;;;;;;;;;;;;;;;5094346;28;19903;-75
2022/02/15 09:24:05;;;;;;;;;;;;;;;;;;5094752;28;20383;-75
2022/02/15 09:26:31;;;;;;;;;;;;;;;;;;5094907;28;19916;-76
2022/02/15 09:28:57;;;;;;;;;;;;;;;;;;5095099;28;20345;-78
2022/02/15 09:31:24;;;;;;;;;;;;;;;;;;5094543;28;19904;-77
2022/02/15 09:33:52;;;;;;;;;;;;;;;;;;5094907;28;19995;-75
2022/02/15 09:36:18;;;;;;;;;;;;;;;;;;5095061;28;20351;-75
2022/02/15 09:38:44;;;;;;;;;;;;;;;;;;5096258;28;19911;-74
2022/02/15 09:41:10;;;;;;;;;;;;;;;;;;5096650;28;20296;-75
2022/02/15 09:43:36;;;;;;;;;;;;;;;;;;5094910;28;19904;-75
2022/02/15 09:46:02;;;;;;;;;;;;;;;;;;5096043;28;19904;-74
2022/02/15 09:48:28;;;;;;;;;;;;;;;;;;5094981;28;19912;-75
2022/02/15 09:50:54;;;;;;;;;;;;;;;;;;5095888;28;19910;-76
2022/02/15 09:53:20;;;;;;;;;;;;;;;;;;5093396;28;19908;-74
2022/02/15 09:55:46;;;;;;;;;;;;;;;;;;5094983;28;20405;-78
2022/02/15 09:58:12;;;;;;;;;;;;;;;;;;5095048;28;19904;-80
2022/02/15 10:00:38;;;;;;;;;;;;;;;;;;5095620;28;19950;-76
2022/02/15 10:03:04;;;;;;;;;;;;;;;;;;5096376;28;19908;-79
2022/02/15 10:05:30;;;;;;;;;;;;;;;;;;5096134;28;19986;-79
2022/02/15 10:07:57;;;;;;;;;;;;;;;;;;5094955;28;19914;-79
2022/02/15 10:10:23;;;;;;;;;;;;;;;;;;5096295;28;20348;-78
2022/02/15 10:12:49;;;;;;;;;;;;;;;;;;5095810;28;20000;-78
2022/02/15 10:15:15;;;;;;;;;;;;;;;;;;5095997;28;20523;-76
2022/02/15 10:17:41;;;;;;;;;;;;;;;;;;5096008;28;19904;-76
2022/02/15 10:20:07;;;;;;;;;;;;;;;;;;5093832;28;19907;-75
2022/02/15 10:22:33;;;;;;;;;;;;;;;;;;5095410;28;20356;-78
2022/02/15 10:24:59;;;;;;;;;;;;;;;;;;5095745;28;19954;-76
2022/02/15 10:27:28;;;;;;;;;;;;;;;;;;5094611;28;19916;-76
2022/02/15 10:29:54;;;;;;;;;;;;;;;;;;5094693;28;19911;-76
2022/02/15 10:32:22;;;;;;;;;;;;;;;;;;5094541;28;20283;-77
2022/02/15 10:34:48;;;;;;;;;;;;;;;;;;5095018;28;19911;-76
2022/02/15 10:37:15;;;;;;;;;;;;;;;;;;5095501;28;20000;-76
2022/02/15 10:39:42;;;;;;;;;;;;;;;;;;5090659;28;20075;-75
2022/02/15 10:47:13;;;;;;;;;;;;;;;;;;5111547;27;19916;-78
2022/02/15 10:52:30;;;;;;;;;;;;;;;;;;5089591;27;19934;-76
2022/02/15 10:54:56;;;;;;;;;;;;;;;;;;5089488;28;19957;-79
2022/02/15 10:57:25;;;;;;;;;;;;;;;;;;5090980;28;19908;-76
2022/02/15 11:00:13;;;;;;;;;;;;;;;;;;5091143;27;19923;-76
2022/02/15 11:02:39;;;;;;;;;;;;;;;;;;5090423;28;20334;-77
2022/02/15 11:05:17;;;;;;;;;;;;;;;;;;5152565;27;20006;-78
2022/02/15 11:08:13;;;;;;;;;;;;;;;;;;5091347;27;19912;-72
2022/02/15 11:10:40;;;;;;;;;;;;;;;;;;5090558;28;19952;-74
2022/02/15 11:13:06;;;;;;;;;;;;;;;;;;5086611;28;19955;-73
2022/02/15 11:15:32;;;;;;;;;;;;;;;;;;5088624;28;20617;-74
2022/02/15 11:18:51;;;;;;;;;;;;;;;;;;5090950;27;20273;-79
2022/02/15 11:21:17;;;;;;;;;;;;;;;;;;5089760;28;20003;-77
2022/02/15 11:23:45;;;;;;;;;;;;;;;;;;5090730;28;19955;-76
2022/02/15 11:27:25;;;;;;;17.37;10.23;;;;;;;;;;5089622;27;20357;-76
2022/02/15 11:32:55;;;;;;;11.95;6.93;;;;;;;;;;5072807;28;20407;-89
2022/02/15 11:38:20;;;;;;;15.18;10.35;;;;;;;;;;5114954;27;20442;-83
2022/02/15 11:43:30;;;;;;;14.20;8.63;;;;;;;;;;5112742;27;20400;-85
2022/02/15 11:45:56;;;;;;;21.42;9.55;;;;;;;;;;5111085;28;20107;-83
2022/02/15 11:48:33;;;;;;;12.90;6.75;;;;;;;;;;5112078;28;20099;-82
2022/02/15 11:52:34;;;;;;;12.73;7.03;;;;;;;;;;5153416;27;20505;-87
2022/02/15 11:55:47;;;;;;;12.65;7.03;;;;;;;;;;5112136;27;20501;-82
2022/02/15 11:58:14;;;;;;;15.57;8.63;;;;;;;;;;5111715;28;20379;-80
2022/02/15 12:00:41;;;;;;;15.57;8.55;;;;;;;;;;5111140;28;20035;-81
2022/02/15 12:03:07;;;;;;;14.82;8.40;;;;;;;;;;5111592;28;20027;-81
2022/02/15 12:06:06;;;;;;;14.75;9.55;;;;;;;;;;5110212;27;20438;-80
2022/02/15 12:08:33;;;;;;;15.60;10.20;;;;;;;;;;5111305;28;20375;-78
2022/02/15 12:11:03;;;;;;;16.63;10.02;;;;;;;;;;5111404;28;20063;-83
2022/02/15 12:13:34;;;;;;;18.65;10.48;;;;;;;;;;5109292;28;20111;-83
2022/02/15 12:16:58;;;;;;;12.45;7.68;;;;;;;;;;5115084;27;20396;-90
2022/02/15 12:19:38;;;;;;;13.30;7.78;;;;;;;;;;5111712;28;20024;-77
2022/02/15 12:25:16;;;;;;;20.42;10.88;;;;;;;;;;5070316;28;20387;-76
2022/02/15 12:30:27;;;;;;;34.42;19.70;;;;;;;;;;5140278;27;20408;-76
2022/02/15 12:32:53;;;;;;;14.93;7.45;;;;;;;;;;5110142;28;20032;-76
2022/02/15 12:35:24;;;;;;;11.63;6.63;;;;;;;;;;5110090;28;20026;-76
2022/02/15 12:38:55;;;;;;;14.48;6.97;;;;;;;;;;5110214;27;20385;-76
2022/02/15 12:41:22;;;;;;;16.67;9.65;;;;;;;;;;5110218;28;20024;-74
2022/02/15 12:43:56;;;;;;;12.95;6.57;;;;;;;;;;5109958;28;20065;-72
2022/02/15 12:46:22;;;;;;;11.77;7.20;;;;;;;;;;5111463;28;20069;-80
2022/02/15 12:48:49;;;;;;;10.85;6.00;;;;;;;;;;5109973;28;20032;-76
2022/02/15 12:52:30;;;;;;;10.95;6.38;;;;;;;;;;5100663;27;1540399;-78
2022/02/15 12:55:00;;;;;;;13.65;6.65;;;;;;;;;;5129990;28;20134;-75
2022/02/15 12:57:27;;;;;;;8.93;5.35;;;;;;;;;;5126247;28;20080;-74
2022/02/15 12:59:56;;;;;;;11.65;7.28;;;;;;;;;;5126946;28;20034;-76
2022/02/15 13:02:23;;;;;;;22.67;11.02;;;;;;;;;;5126214;28;20023;-74
2022/02/15 13:04:51;;;;;;;11.98;6.68;;;;;;;;;;5119901;28;20028;-76
2022/02/15 13:07:18;;;;;;;10.32;5.63;;;;;;;;;;5110455;28;20027;-75
2022/02/15 13:10:08;;;;;;;15.75;8.48;;;;;;;;;;5109646;27;20437;-75
2022/02/15 13:12:35;;;;;;;10.30;6.00;;;;;;;;;;5110691;28;20027;-78
2022/02/15 13:15:25;;;;;;;9.68;5.70;;;;;;;;;;5110442;27;20404;-79
2022/02/15 13:17:54;;;;;;;11.23;6.03;;;;;;;;;;5100702;28;20028;-75
2022/02/15 13:20:24;;;;;;;9.77;5.38;;;;;;;;;;5089224;28;20031;-75
2022/02/15 13:23:03;;;;;;;8.77;4.93;;;;;;;;;;5110338;27;20810;-74
2022/02/15 13:25:43;;;;;;;9.57;5.22;;;;;;;;;;5110762;28;20395;-73
2022/02/15 13:29:57;;;;;;;19.02;11.93;;;;;;;;;;5110386;27;20899;-74
2022/02/15 13:34:40;;;;;;;8.88;5.20;;;;;;;;;;5110601;27;20397;-75
2022/02/15 13:37:10;;;;;;;15.90;9.43;;;;;;;;;;5109295;28;20024;-74
2022/02/15 13:39:36;;;;;;;31.00;15.15;;;;;;;;;;5110641;28;20024;-77
2022/02/15 13:42:03;;;;;;;13.35;6.22;;;;;;;;;;5110636;28;20034;-73
2022/02/15 13:44:30;;;;;;;14.30;7.03;;;;;;;;;;5108514;28;20024;-74
2022/02/15 13:46:56;;;;;;;9.40;4.70;;;;;;;;;;5108086;28;20043;-73
2022/02/15 13:49:22;;;;;;;8.60;4.35;;;;;;;;;;5108270;28;20073;-73
2022/02/15 13:51:48;;;;;;;12.48;5.60;;;;;;;;;;5108224;28;20024;-75
2022/02/15 13:54:15;;;;;;;9.98;5.65;;;;;;;;;;5109518;28;20032;-74
2022/02/15 13:56:41;;;;;;;9.55;5.15;;;;;;;;;;5110157;28;20016;-75
2022/02/15 13:59:09;;;;;;;15.52;9.77;;;;;;;;;;5109918;28;20028;-73
2022/02/15 14:01:35;;;;;;;12.35;6.28;;;;;;;;;;5110052;28;20044;-72
2022/02/15 14:04:02;;;;;;;12.38;6.53;;;;;;;;;;5109672;28;20077;-72
2022/02/15 14:06:29;;;;;;;18.23;7.93;;;;;;;;;;5107881;28;20016;-71
2022/02/15 14:08:55;;;;;;;13.45;6.68;;;;;;;;;;5105468;28;20028;-72
2022/02/15 14:12:18;;;;;;;17.73;7.13;;;;;;;;;;5110131;27;20397;-72
2022/02/15 14:18:51;;;;;;;10.05;6.10;;;;;;;;;;5110773;27;20458;-72
2022/02/15 14:23:25;;;;;;;13.65;7.30;;;;;;;;;;5111287;27;20757;-72
2022/02/15 14:27:31;;;;;;;25.48;13.30;;;;;;;;;;5110957;27;20401;-73
2022/02/15 14:29:57;;;;;;;29.75;16.35;;;;;;;;;;5111238;28;20028;-72
2022/02/15 14:32:24;;;;;;;20.73;12.95;;;;;;;;;;5109859;28;20069;-72
2022/02/15 14:34:50;;;;;;;26.48;16.60;;;;;;;;;;5110704;28;20047;-72
2022/02/15 14:37:16;;;;;;;23.23;11.65;;;;;;;;;;5111370;28;20069;-72
2022/02/15 14:41:48;;;;;;;30.65;17.30;;;;;;;;;;5110748;27;20409;-72
2022/02/15 14:44:14;;;;;;;42.25;26.08;;;;;;;;;;5111250;28;20065;-71
2022/02/15 14:46:40;;;;;;;22.40;13.65;;;;;;;;;;5110862;28;20540;-72
2022/02/15 14:49:06;;;;;;;41.42;27.13;;;;;;;;;;5109664;28;20389;-72
2022/02/15 14:51:33;;;;;;;34.25;23.30;;;;;;;;;;5110982;28;20020;-72
2022/02/15 14:53:59;;;;;;;16.15;10.60;;;;;;;;;;5110582;28;20032;-74
2022/02/15 14:56:27;;;;;;;23.10;14.90;;;;;;;;;;5110943;28;20472;-73
2022/02/15 14:58:53;;;;;;;24.77;14.45;;;;;;;;;;5110936;28;20073;-73
2022/02/15 15:01:31;;;;;;;21.05;12.65;;;;;;;;;;5111069;27;20310;-74
2022/02/15 15:03:58;;;;;;;19.65;13.85;;;;;;;;;;5090937;28;20032;-73
2022/02/15 15:06:24;;;;;;;21.52;13.02;;;;;;;;;;5089316;28;20429;-73
2022/02/15 15:09:01;;;;;;;18.65;11.27;;;;;;;;;;5110998;27;20861;-73
2022/02/15 15:13:14;;;;;;;28.20;20.20;;;;;;;;;;5111932;27;20393;-72
2022/02/15 15:15:40;;;;;;;24.30;15.18;;;;;;;;;;5110824;28;20027;-74
2022/02/15 15:18:06;;;;;;;25.38;14.65;;;;;;;;;;5111075;28;20099;-72
2022/02/15 15:20:33;;;;;;;22.73;13.32;;;;;;;;;;5110999;28;20074;-72
2022/02/15 15:22:59;;;;;;;25.63;13.10;;;;;;;;;;5100050;28;20027;-72
2022/02/15 15:26:08;;;;;;;22.95;12.73;;;;;;;;;;5112053;27;20524;-74
2022/02/15 15:32:39;;;;;;;24.45;13.90;;;;;;;;;;5111384;27;20401;-74
2022/02/15 15:35:05;;;;;;;31.05;15.90;;;;;;;;;;5111346;28;20475;-72
2022/02/15 15:37:36;;;;;;;37.05;19.80;;;;;;;;;;5110796;28;20020;-72
2022/02/15 15:43:53;;;;;;;35.10;20.10;;;;;;;;;;5110989;27;20484;-74
2022/02/15 15:46:19;;;;;;;27.88;15.15;;;;;;;;;;5111488;28;20023;-72
2022/02/15 15:49:47;;;;;;;30.35;14.80;;;;;;;;;;5111941;27;20396;-73
2022/02/15 15:52:13;;;;;;;24.30;12.57;;;;;;;;;;5109492;28;20085;-74
2022/02/15 15:54:39;;;;;;;27.85;16.10;;;;;;;;;;5110462;28;20036;-73